KRTN

Details ICAO KRTN
Name RATON MUNI CREWS FLD
Region United States
Timezone America/Denver (UTC-6.0)
Plans Departing 5
Arriving 4
Stats Elevation 6,352 ft / 1,936 m (AMSL)
Location 36.741554° -104.501542°
Runways 2
Magnetic Variation 7.669° E
Sunrise 2018-05-26 11:44:39 UTC / 2018-05-26 05:44:39 Local
Sunset 2018-05-27 02:08:23 UTC / 2018-05-26 20:08:23 Local
Advertisement - Login to hide

Runways

ID Width Length Bearing (true) Bearing (mag) Surface Threshold Offset Overrun Length
02 75 ft / 23 m 6,331 ft / 1,930 m 34.07° 26.40° Asphalt 0 ft / 0 m 240 ft / 73 m
07 75 ft / 23 m 4,394 ft / 1,339 m 77.55° 69.88° Asphalt 0 ft / 0 m 0 ft / 0 m
20 75 ft / 23 m 6,331 ft / 1,930 m 214.08° 206.41° Asphalt 0 ft / 0 m 0 ft / 0 m
25 75 ft / 23 m 4,394 ft / 1,339 m 257.56° 249.89° Asphalt 0 ft / 0 m 600 ft / 183 m

Map

Weather


0- 5 10 15 20 25 30 35+ Temperature / ° C

Clouds and Precipitation
Forecast for 2018-05-26 12:00 UTC. Updated 3 hours ago

Ground ~20,000 ft ~40,000 ft Winds

METAR

KRTN 261353Z AUTO 08009KT 10SM CLR 13/03 A3010 RMK AO2 SLP110 T01330033

TAF

Not found

Frequencies

Recorded 118.37 MHz ASOS
Unicom 122.80 MHz CTAF/UNICOM
Warning: Do not use this data for real-world aviation or navigation. No guarantee of current accuracy is given.